sensor_id;sensor_type;location;lat;lon;timestamp;pressure;altitude;pressure_sealevel;temperature;humidity
7614;BME280;3848;42.016;23.098;2023-04-25T00:00:39;96415.84;;;14.11;100.00
7614;BME280;3848;42.016;23.098;2023-04-25T00:03:08;96414.03;;;14.14;100.00
7614;BME280;3848;42.016;23.098;2023-04-25T00:05:34;96414.91;;;14.13;100.00
7614;BME280;3848;42.016;23.098;2023-04-25T00:08:02;96411.38;;;14.17;100.00
7614;BME280;3848;42.016;23.098;2023-04-25T00:10:29;96407.19;;;14.15;100.00
7614;BME280;3848;42.016;23.098;2023-04-25T00:12:56;96394.94;;;13.99;100.00
7614;BME280;3848;42.016;23.098;2023-04-25T00:15:23;96408.28;;;14.08;100.00
7614;BME280;3848;42.016;23.098;2023-04-25T00:17:49;96404.75;;;14.12;100.00
7614;BME280;3848;42.016;23.098;2023-04-25T00:20:19;96401.56;;;14.05;100.00
7614;BME280;3848;42.016;23.098;2023-04-25T00:22:47;96403.34;;;14.03;100.00
7614;BME280;3848;42.016;23.098;2023-04-25T00:25:13;96380.91;;;13.86;100.00
7614;BME280;3848;42.016;23.098;2023-04-25T00:27:40;96406.88;;;13.99;100.00
7614;BME280;3848;42.016;23.098;2023-04-25T00:30:08;96394.91;;;14.01;100.00
7614;BME280;3848;42.016;23.098;2023-04-25T00:32:35;96396.72;;;13.97;100.00
7614;BME280;3848;42.016;23.098;2023-04-25T00:35:01;96389.94;;;13.96;100.00
7614;BME280;3848;42.016;23.098;2023-04-25T00:37:30;96388.31;;;13.94;100.00
7614;BME280;3848;42.016;23.098;2023-04-25T00:39:58;96380.91;;;13.86;100.00
7614;BME280;3848;42.016;23.098;2023-04-25T00:42:25;96382.69;;;13.84;100.00
7614;BME280;3848;42.016;23.098;2023-04-25T00:44:52;96385.19;;;13.86;100.00
7614;BME280;3848;42.016;23.098;2023-04-25T00:47:19;96383.31;;;13.91;100.00
7614;BME280;3848;42.016;23.098;2023-04-25T00:49:46;96378.13;;;13.92;100.00
7614;BME280;3848;42.016;23.098;2023-04-25T00:52:13;96372.69;;;13.78;100.00
7614;BME280;3848;42.016;23.098;2023-04-25T00:54:41;96390.28;;;13.86;100.00
7614;BME280;3848;42.016;23.098;2023-04-25T00:57:08;96386.06;;;13.85;100.00
7614;BME280;3848;42.016;23.098;2023-04-25T00:59:36;96389.41;;;13.87;100.00
7614;BME280;3848;42.016;23.098;2023-04-25T01:02:04;96381.84;;;13.84;100.00
7614;BME280;3848;42.016;23.098;2023-04-25T01:04:31;96384.44;;;13.82;100.00
7614;BME280;3848;42.016;23.098;2023-04-25T01:06:58;96387.00;;;13.82;100.00
7614;BME280;3848;42.016;23.098;2023-04-25T01:09:25;96382.72;;;13.83;100.00
7614;BME280;3848;42.016;23.098;2023-04-25T01:11:54;96375.13;;;13.81;100.00
7614;BME280;3848;42.016;23.098;2023-04-25T01:14:20;96376.06;;;13.79;100.00
7614;BME280;3848;42.016;23.098;2023-04-25T01:16:47;96374.34;;;13.79;100.00
7614;BME280;3848;42.016;23.098;2023-04-25T01:19:16;96370.25;;;13.73;100.00
7614;BME280;3848;42.016;23.098;2023-04-25T01:21:45;96368.69;;;13.69;100.00
7614;BME280;3848;42.016;23.098;2023-04-25T01:24:12;96366.28;;;13.65;100.00
7614;BME280;3848;42.016;23.098;2023-04-25T01:26:39;96357.75;;;13.66;100.00
7614;BME280;3848;42.016;23.098;2023-04-25T01:29:10;96349.19;;;13.67;100.00
7614;BME280;3848;42.016;23.098;2023-04-25T01:31:36;96350.19;;;13.63;100.00
7614;BME280;3848;42.016;23.098;2023-04-25T01:34:04;96346.91;;;13.59;100.00
7614;BME280;3848;42.016;23.098;2023-04-25T01:36:31;96344.50;;;13.55;100.00
7614;BME280;3848;42.016;23.098;2023-04-25T01:38:59;96342.84;;;13.54;100.00
7614;BME280;3848;42.016;23.098;2023-04-25T01:41:27;96334.63;;;13.44;100.00
7614;BME280;3848;42.016;23.098;2023-04-25T01:43:54;96331.25;;;13.43;100.00
7614;BME280;3848;42.016;23.098;2023-04-25T01:46:21;96323.69;;;13.40;100.00
7614;BME280;3848;42.016;23.098;2023-04-25T01:48:47;96335.63;;;13.40;100.00
7614;BME280;3848;42.016;23.098;2023-04-25T01:51:14;96334.16;;;13.33;100.00
7614;BME280;3848;42.016;23.098;2023-04-25T01:53:42;96342.00;;;13.27;100.00
7614;BME280;3848;42.016;23.098;2023-04-25T01:56:10;96340.28;;;13.27;100.00
7614;BME280;3848;42.016;23.098;2023-04-25T01:58:37;96332.88;;;13.20;100.00
7614;BME280;3848;42.016;23.098;2023-04-25T02:01:04;96339.75;;;13.18;100.00
7614;BME280;3848;42.016;23.098;2023-04-25T02:03:31;96303.03;;;12.94;100.00
7614;BME280;3848;42.016;23.098;2023-04-25T02:05:58;96333.03;;;13.13;100.00
7614;BME280;3848;42.016;23.098;2023-04-25T02:08:25;96331.44;;;13.09;100.00
7614;BME280;3848;42.016;23.098;2023-04-25T02:10:52;96332.19;;;13.13;100.00
7614;BME280;3848;42.016;23.098;2023-04-25T02:13:20;96323.75;;;13.11;100.00
7614;BME280;3848;42.016;23.098;2023-04-25T02:15:47;96317.78;;;13.12;100.00
7614;BME280;3848;42.016;23.098;2023-04-25T02:18:14;96312.63;;;13.13;100.00
7614;BME280;3848;42.016;23.098;2023-04-25T02:20:41;96308.38;;;13.14;100.00
7614;BME280;3848;42.016;23.098;2023-04-25T02:23:08;96310.97;;;13.12;100.00
7614;BME280;3848;42.016;23.098;2023-04-25T02:25:35;96310.13;;;13.12;100.00
7614;BME280;3848;42.016;23.098;2023-04-25T02:28:02;96296.56;;;13.10;100.00
7614;BME280;3848;42.016;23.098;2023-04-25T02:30:30;96305.03;;;13.12;100.00
7614;BME280;3848;42.016;23.098;2023-04-25T02:32:57;96313.59;;;13.09;100.00
7614;BME280;3848;42.016;23.098;2023-04-25T02:35:24;96308.63;;;13.05;100.00
7614;BME280;3848;42.016;23.098;2023-04-25T02:37:50;96303.72;;;12.99;100.00
7614;BME280;3848;42.016;23.098;2023-04-25T02:40:17;96305.41;;;13.00;100.00
7614;BME280;3848;42.016;23.098;2023-04-25T02:42:44;96294.63;;;12.92;100.00
7614;BME280;3848;42.016;23.098;2023-04-25T02:45:12;96302.34;;;12.89;100.00
7614;BME280;3848;42.016;23.098;2023-04-25T02:47:40;96307.53;;;12.86;100.00
7614;BME280;3848;42.016;23.098;2023-04-25T02:50:07;96298.25;;;12.83;100.00
7614;BME280;3848;42.016;23.098;2023-04-25T02:52:34;96309.16;;;12.88;100.00
7614;BME280;3848;42.016;23.098;2023-04-25T02:55:01;96304.00;;;12.90;100.00
7614;BME280;3848;42.016;23.098;2023-04-25T02:57:27;96308.25;;;12.89;100.00
7614;BME280;3848;42.016;23.098;2023-04-25T02:59:54;96306.53;;;12.90;100.00
7614;BME280;3848;42.016;23.098;2023-04-25T03:02:21;96313.41;;;12.88;100.00
7614;BME280;3848;42.016;23.098;2023-04-25T03:04:49;96308.41;;;12.85;100.00
7614;BME280;3848;42.016;23.098;2023-04-25T03:07:16;96311.00;;;12.83;100.00
7614;BME280;3848;42.016;23.098;2023-04-25T03:09:42;96317.00;;;12.82;100.00
7614;BME280;3848;42.016;23.098;2023-04-25T03:12:09;96312.22;;;12.71;100.00
7614;BME280;3848;42.016;23.098;2023-04-25T03:14:36;96319.00;;;12.72;100.00
7614;BME280;3848;42.016;23.098;2023-04-25T03:17:03;96314.78;;;12.71;100.00
7614;BME280;3848;42.016;23.098;2023-04-25T03:19:29;96318.38;;;12.64;100.00
7614;BME280;3848;42.016;23.098;2023-04-25T03:21:57;96305.56;;;12.66;100.00
7614;BME280;3848;42.016;23.098;2023-04-25T03:24:24;96305.75;;;12.60;100.00
7614;BME280;3848;42.016;23.098;2023-04-25T03:26:52;96311.75;;;12.59;100.00
7614;BME280;3848;42.016;23.098;2023-04-25T03:29:19;96321.84;;;12.62;100.00
7614;BME280;3848;42.016;23.098;2023-04-25T03:31:49;96315.16;;;12.58;100.00
7614;BME280;3848;42.016;23.098;2023-04-25T03:34:16;96288.41;;;12.43;100.00
7614;BME280;3848;42.016;23.098;2023-04-25T03:36:43;96320.31;;;12.56;100.00
7614;BME280;3848;42.016;23.098;2023-04-25T03:39:11;96316.97;;;12.54;100.00
7614;BME280;3848;42.016;23.098;2023-04-25T03:41:38;96318.66;;;12.55;100.00
7614;BME280;3848;42.016;23.098;2023-04-25T03:44:04;96310.38;;;12.47;100.00
7614;BME280;3848;42.016;23.098;2023-04-25T03:46:31;96298.41;;;12.49;100.00
7614;BME280;3848;42.016;23.098;2023-04-25T03:48:58;96310.75;;;12.63;100.00
7614;BME280;3848;42.016;23.098;2023-04-25T03:51:25;96314.06;;;12.66;100.00
7614;BME280;3848;42.016;23.098;2023-04-25T03:53:52;96323.31;;;12.70;100.00
7614;BME280;3848;42.016;23.098;2023-04-25T03:56:20;96307.03;;;12.74;100.00
7614;BME280;3848;42.016;23.098;2023-04-25T03:58:47;96310.63;;;12.67;100.00
7614;BME280;3848;42.016;23.098;2023-04-25T04:01:14;96316.50;;;12.69;100.00
7614;BME280;3848;42.016;23.098;2023-04-25T04:03:41;96312.97;;;12.75;100.00
7614;BME280;3848;42.016;23.098;2023-04-25T04:06:07;96317.88;;;12.81;100.00
7614;BME280;3848;42.016;23.098;2023-04-25T04:08:34;96319.50;;;12.83;100.00
7614;BME280;3848;42.016;23.098;2023-04-25T04:11:01;96314.25;;;12.88;100.00
7614;BME280;3848;42.016;23.098;2023-04-25T04:13:31;96316.69;;;12.93;100.00
7614;BME280;3848;42.016;23.098;2023-04-25T04:15:58;96317.47;;;12.95;100.00
7614;BME280;3848;42.016;23.098;2023-04-25T04:18:24;96322.41;;;12.99;100.00
7614;BME280;3848;42.016;23.098;2023-04-25T04:20:51;96318.84;;;13.05;100.00
7614;BME280;3848;42.016;23.098;2023-04-25T04:23:19;96314.53;;;13.07;100.00
7614;BME280;3848;42.016;23.098;2023-04-25T04:25:45;96312.91;;;13.04;100.00
7614;BME280;3848;42.016;23.098;2023-04-25T04:28:13;96315.25;;;13.10;100.00
7614;BME280;3848;42.016;23.098;2023-04-25T04:30:42;96317.78;;;13.12;100.00
7614;BME280;3848;42.016;23.098;2023-04-25T04:33:12;96317.91;;;13.07;100.00
7614;BME280;3848;42.016;23.098;2023-04-25T04:35:40;96327.06;;;13.15;100.00
7614;BME280;3848;42.016;23.098;2023-04-25T04:38:08;96315.13;;;13.15;100.00
7614;BME280;3848;42.016;23.098;2023-04-25T04:40:36;96320.06;;;13.21;100.00
7614;BME280;3848;42.016;23.098;2023-04-25T04:43:02;96328.59;;;13.20;100.00
7614;BME280;3848;42.016;23.098;2023-04-25T04:45:30;96319.97;;;13.24;100.00
7614;BME280;3848;42.016;23.098;2023-04-25T04:47:58;96323.19;;;13.29;100.00
7614;BME280;3848;42.016;23.098;2023-04-25T04:50:25;96319.69;;;13.33;100.00
7614;BME280;3848;42.016;23.098;2023-04-25T04:52:52;96312.81;;;13.35;100.00
7614;BME280;3848;42.016;23.098;2023-04-25T04:55:20;96316.00;;;13.42;100.00
7614;BME280;3848;42.016;23.098;2023-04-25T04:57:47;96322.50;;;13.51;100.00
7614;BME280;3848;42.016;23.098;2023-04-25T05:00:14;96314.72;;;13.55;100.00
7614;BME280;3848;42.016;23.098;2023-04-25T05:02:42;96311.84;;;13.64;100.00
7614;BME280;3848;42.016;23.098;2023-04-25T05:05:10;96311.63;;;13.70;100.00
7614;BME280;3848;42.016;23.098;2023-04-25T05:07:37;96306.47;;;13.72;100.00
7614;BME280;3848;42.016;23.098;2023-04-25T05:10:05;96308.94;;;13.75;100.00
7614;BME280;3848;42.016;23.098;2023-04-25T05:12:32;96310.56;;;13.78;100.00
7614;BME280;3848;42.016;23.098;2023-04-25T05:14:59;96311.19;;;13.84;100.00
7614;BME280;3848;42.016;23.098;2023-04-25T05:17:26;96318.78;;;13.86;100.00
7614;BME280;3848;42.016;23.098;2023-04-25T05:19:52;96316.84;;;13.92;100.00
7614;BME280;3848;42.016;23.098;2023-04-25T05:22:21;96314.22;;;13.95;100.00
7614;BME280;3848;42.016;23.098;2023-04-25T05:24:47;96314.22;;;13.95;100.00
7614;BME280;3848;42.016;23.098;2023-04-25T05:27:17;96304.19;;;13.89;100.00
7614;BME280;3848;42.016;23.098;2023-04-25T05:29:43;96316.72;;;13.97;100.00
7614;BME280;3848;42.016;23.098;2023-04-25T05:32:10;96315.00;;;13.97;100.00
7614;BME280;3848;42.016;23.098;2023-04-25T05:34:37;96320.75;;;14.02;100.00
7614;BME280;3848;42.016;23.098;2023-04-25T05:37:04;96322.31;;;14.07;100.00
7614;BME280;3848;42.016;23.098;2023-04-25T05:39:33;96321.25;;;14.12;100.00
7614;BME280;3848;42.016;23.098;2023-04-25T05:41:59;96314.44;;;14.13;100.00
7614;BME280;3848;42.016;23.098;2023-04-25T05:44:27;96317.81;;;14.13;100.00
7614;BME280;3848;42.016;23.098;2023-04-25T05:46:54;96314.38;;;14.14;100.00
7614;BME280;3848;42.016;23.098;2023-04-25T05:49:21;96324.13;;;14.28;100.00
7614;BME280;3848;42.016;23.098;2023-04-25T05:51:48;96323.84;;;14.35;100.00
7614;BME280;3848;42.016;23.098;2023-04-25T05:54:14;96321.06;;;14.42;100.00
7614;BME280;3848;42.016;23.098;2023-04-25T05:56:43;96314.25;;;14.42;100.00
7614;BME280;3848;42.016;23.098;2023-04-25T05:59:09;96315.00;;;14.46;100.00
7614;BME280;3848;42.016;23.098;2023-04-25T06:01:36;96312.97;;;14.54;100.00
7614;BME280;3848;42.016;23.098;2023-04-25T06:04:03;96314.44;;;14.61;100.00
7614;BME280;3848;42.016;23.098;2023-04-25T06:06:30;96320.97;;;14.68;100.00
7614;BME280;3848;42.016;23.098;2023-04-25T06:08:57;96321.81;;;14.69;100.00
7614;BME280;3848;42.016;23.098;2023-04-25T06:11:23;96314.84;;;14.72;100.00
7614;BME280;3848;42.016;23.098;2023-04-25T06:13:52;96317.06;;;14.59;100.00
7614;BME280;3848;42.016;23.098;2023-04-25T06:42:56;96314.19;;;14.20;100.00
7614;BME280;3848;42.016;23.098;2023-04-25T06:45:23;96315.13;;;14.41;100.00
7614;BME280;3848;42.016;23.098;2023-04-25T06:47:50;96257.44;;;14.34;100.00
7614;BME280;3848;42.016;23.098;2023-04-25T06:50:19;96307.44;;;14.88;100.00
7614;BME280;3848;42.016;23.098;2023-04-25T06:52:47;96303.91;;;15.12;100.00
7614;BME280;3848;42.016;23.098;2023-04-25T06:55:13;96298.84;;;15.33;100.00
7614;BME280;3848;42.016;23.098;2023-04-25T06:57:40;96291.19;;;15.53;100.00
7614;BME280;3848;42.016;23.098;2023-04-25T07:00:09;96289.50;;;15.74;100.00
7614;BME280;3848;42.016;23.098;2023-04-25T07:02:36;96288.53;;;15.76;100.00
7614;BME280;3848;42.016;23.098;2023-04-25T07:05:03;96296.00;;;15.81;100.00
7614;BME280;3848;42.016;23.098;2023-04-25T07:07:31;96299.09;;;15.89;100.00
7614;BME280;3848;42.016;23.098;2023-04-25T07:09:57;96295.16;;;16.01;100.00
7614;BME280;3848;42.016;23.098;2023-04-25T07:12:24;96295.81;;;16.06;100.00
7614;BME280;3848;42.016;23.098;2023-04-25T07:14:51;96302.63;;;16.07;100.00
7614;BME280;3848;42.016;23.098;2023-04-25T07:17:19;96297.22;;;16.13;100.00
7614;BME280;3848;42.016;23.098;2023-04-25T07:19:46;96305.16;;;16.27;100.00
7614;BME280;3848;42.016;23.098;2023-04-25T07:22:12;96303.00;;;16.37;100.00
7614;BME280;3848;42.016;23.098;2023-04-25T07:24:39;96292.13;;;16.51;100.00
7614;BME280;3848;42.016;23.098;2023-04-25T07:27:06;96291.56;;;16.63;100.00
7614;BME280;3848;42.016;23.098;2023-04-25T07:29:33;96288.25;;;16.80;100.00
7614;BME280;3848;42.016;23.098;2023-04-25T07:32:02;96282.03;;;17.02;100.00
7614;BME280;3848;42.016;23.098;2023-04-25T07:34:30;96281.03;;;17.24;100.00
7614;BME280;3848;42.016;23.098;2023-04-25T07:36:57;96273.19;;;17.44;100.00
7614;BME280;3848;42.016;23.098;2023-04-25T07:39:25;96275.16;;;17.56;100.00
7614;BME280;3848;42.016;23.098;2023-04-25T07:41:52;96272.78;;;17.71;100.00
7614;BME280;3848;42.016;23.098;2023-04-25T07:44:19;96275.94;;;17.76;100.00
7614;BME280;3848;42.016;23.098;2023-04-25T07:46:45;96276.09;;;17.73;100.00
7614;BME280;3848;42.016;23.098;2023-04-25T07:49:12;96272.91;;;17.67;100.00
7614;BME280;3848;42.016;23.098;2023-04-25T07:51:41;96277.59;;;17.77;100.00
7614;BME280;3848;42.016;23.098;2023-04-25T07:54:08;96273.78;;;17.66;100.00
7614;BME280;3848;42.016;23.098;2023-04-25T07:56:35;96273.03;;;17.64;100.00
7614;BME280;3848;42.016;23.098;2023-04-25T07:59:02;96274.34;;;17.73;100.00
7614;BME280;3848;42.016;23.098;2023-04-25T08:01:29;96268.75;;;17.82;100.00
7614;BME280;3848;42.016;23.098;2023-04-25T08:03:55;96269.16;;;17.90;100.00
7614;BME280;3848;42.016;23.098;2023-04-25T08:06:22;96268.41;;;18.06;100.00
7614;BME280;3848;42.016;23.098;2023-04-25T08:08:50;96256.91;;;18.13;100.00
7614;BME280;3848;42.016;23.098;2023-04-25T08:11:17;96259.91;;;18.21;100.00
7614;BME280;3848;42.016;23.098;2023-04-25T08:13:44;96247.22;;;18.34;100.00
7614;BME280;3848;42.016;23.098;2023-04-25T08:16:11;96252.22;;;18.37;100.00
7614;BME280;3848;42.016;23.098;2023-04-25T08:18:38;96248.78;;;18.52;100.00
7614;BME280;3848;42.016;23.098;2023-04-25T08:21:05;96256.38;;;18.55;100.00
7614;BME280;3848;42.016;23.098;2023-04-25T08:23:32;96242.06;;;18.49;99.77
7614;BME280;3848;42.016;23.098;2023-04-25T08:26:00;96255.69;;;18.51;98.08
7614;BME280;3848;42.016;23.098;2023-04-25T08:28:27;96250.53;;;18.51;93.17
7614;BME280;3848;42.016;23.098;2023-04-25T08:30:54;96242.59;;;18.56;100.00
7614;BME280;3848;42.016;23.098;2023-04-25T08:33:21;96245.91;;;18.74;100.00
7614;BME280;3848;42.016;23.098;2023-04-25T08:35:48;96240.69;;;18.91;100.00
7614;BME280;3848;42.016;23.098;2023-04-25T08:38:15;96236.72;;;19.15;100.00
7614;BME280;3848;42.016;23.098;2023-04-25T08:40:43;96239.97;;;19.19;94.35
7614;BME280;3848;42.016;23.098;2023-04-25T08:43:13;96241.00;;;19.31;97.63
7614;BME280;3848;42.016;23.098;2023-04-25T08:45:41;96242.66;;;19.32;82.80
7614;BME280;3848;42.016;23.098;2023-04-25T08:48:11;96240.59;;;19.38;80.00
7614;BME280;3848;42.016;23.098;2023-04-25T08:50:39;96238.22;;;19.49;79.06
7614;BME280;3848;42.016;23.098;2023-04-25T08:53:08;96179.63;;;19.23;73.82
7614;BME280;3848;42.016;23.098;2023-04-25T08:55:37;96237.44;;;19.63;92.53
7614;BME280;3848;42.016;23.098;2023-04-25T08:58:05;96222.00;;;19.92;90.53
7614;BME280;3848;42.016;23.098;2023-04-25T09:00:33;96223.38;;;20.26;76.84
7614;BME280;3848;42.016;23.098;2023-04-25T09:03:01;96220.16;;;20.51;71.39
7614;BME280;3848;42.016;23.098;2023-04-25T09:05:28;96209.13;;;20.61;63.02
7614;BME280;3848;42.016;23.098;2023-04-25T09:07:55;96207.41;;;20.89;66.71
7614;BME280;3848;42.016;23.098;2023-04-25T09:10:23;96211.91;;;21.12;62.88
7614;BME280;3848;42.016;23.098;2023-04-25T09:13:02;96204.03;;;21.28;59.76
7614;BME280;3848;42.016;23.098;2023-04-25T09:15:30;96195.59;;;21.51;57.75
7614;BME280;3848;42.016;23.098;2023-04-25T09:17:58;96177.69;;;21.61;60.21
7614;BME280;3848;42.016;23.098;2023-04-25T09:20:26;96192.16;;;21.64;55.96
7614;BME280;3848;42.016;23.098;2023-04-25T09:23:02;96180.16;;;22.01;64.85
7614;BME280;3848;42.016;23.098;2023-04-25T09:25:34;96182.31;;;22.32;54.88
7614;BME280;3848;42.016;23.098;2023-04-25T09:28:05;96174.59;;;22.67;54.35
7614;BME280;3848;42.016;23.098;2023-04-25T09:30:34;96175.56;;;22.90;52.30
7614;BME280;3848;42.016;23.098;2023-04-25T09:33:06;96095.66;;;22.73;50.02
7614;BME280;3848;42.016;23.098;2023-04-25T09:35:36;96161.09;;;23.23;50.36
7614;BME280;3848;42.016;23.098;2023-04-25T09:38:09;96153.47;;;23.32;51.08
7614;BME280;3848;42.016;23.098;2023-04-25T09:40:39;96143.34;;;23.52;47.46
7614;BME280;3848;42.016;23.098;2023-04-25T09:43:09;96140.22;;;24.04;48.98
7614;BME280;3848;42.016;23.098;2023-04-25T09:45:41;96144.94;;;23.99;46.21
7614;BME280;3848;42.016;23.098;2023-04-25T09:48:15;96135.16;;;23.80;46.25
7614;BME280;3848;42.016;23.098;2023-04-25T09:50:43;96135.31;;;23.43;46.56
7614;BME280;3848;42.016;23.098;2023-04-25T09:53:09;96123.19;;;23.44;47.11
7614;BME280;3848;42.016;23.098;2023-04-25T09:55:38;96107.00;;;22.83;48.63
7614;BME280;3848;42.016;23.098;2023-04-25T09:58:05;96120.94;;;22.69;48.72
7614;BME280;3848;42.016;23.098;2023-04-25T10:03:01;96079.03;;;22.16;48.82
7614;BME280;3848;42.016;23.098;2023-04-25T10:05:32;96097.22;;;22.51;49.90
7614;BME280;3848;42.016;23.098;2023-04-25T10:08:03;96105.69;;;22.54;50.46
7614;BME280;3848;42.016;23.098;2023-04-25T10:10:30;96127.59;;;22.13;50.33
7614;BME280;3848;42.016;23.098;2023-04-25T10:13:03;96134.47;;;21.25;54.11
7614;BME280;3848;42.016;23.098;2023-04-25T10:15:31;96153.47;;;20.57;56.43
7614;BME280;3848;42.016;23.098;2023-04-25T10:17:58;96166.88;;;20.35;58.41
7614;BME280;3848;42.016;23.098;2023-04-25T10:20:26;96141.56;;;20.28;60.11
7614;BME280;3848;42.016;23.098;2023-04-25T10:22:57;96158.09;;;20.38;60.99
7614;BME280;3848;42.016;23.098;2023-04-25T10:25:25;96130.31;;;20.29;62.00
7614;BME280;3848;42.016;23.098;2023-04-25T10:27:52;96157.91;;;20.55;55.90
7614;BME280;3848;42.016;23.098;2023-04-25T10:30:20;96151.78;;;20.70;59.22
7614;BME280;3848;42.016;23.098;2023-04-25T10:32:46;96145.56;;;20.73;56.15
7614;BME280;3848;42.016;23.098;2023-04-25T10:35:16;96159.75;;;20.80;55.91
7614;BME280;3848;42.016;23.098;2023-04-25T10:38:08;96159.63;;;21.09;55.29
7614;BME280;3848;42.016;23.098;2023-04-25T10:40:36;96135.28;;;21.76;58.05
7614;BME280;3848;42.016;23.098;2023-04-25T10:43:34;96147.72;;;22.33;50.52
7614;BME280;3848;42.016;23.098;2023-04-25T10:46:02;96136.88;;;23.00;49.51
7614;BME280;3848;42.016;23.098;2023-04-25T10:48:30;96133.38;;;23.81;52.90
7614;BME280;3848;42.016;23.098;2023-04-25T10:51:07;96123.19;;;24.45;51.11
7614;BME280;3848;42.016;23.098;2023-04-25T10:53:36;96122.44;;;24.54;47.12
7614;BME280;3848;42.016;23.098;2023-04-25T10:56:12;96115.75;;;24.72;45.95
7614;BME280;3848;42.016;23.098;2023-04-25T10:58:43;96111.03;;;24.98;47.95
7614;BME280;3848;42.016;23.098;2023-04-25T11:01:12;96066.38;;;25.04;45.57
7614;BME280;3848;42.016;23.098;2023-04-25T11:03:41;96064.19;;;25.30;45.49
7614;BME280;3848;42.016;23.098;2023-04-25T11:06:23;96091.47;;;25.97;43.63
7614;BME280;3848;42.016;23.098;2023-04-25T11:08:56;96072.59;;;26.14;44.39
7614;BME280;3848;42.016;23.098;2023-04-25T11:11:22;96072.44;;;26.65;44.84
7614;BME280;3848;42.016;23.098;2023-04-25T11:13:50;96060.59;;;26.81;43.83
7614;BME280;3848;42.016;23.098;2023-04-25T11:16:17;96078.19;;;26.69;44.66
7614;BME280;3848;42.016;23.098;2023-04-25T11:18:44;96069.09;;;26.92;45.62
7614;BME280;3848;42.016;23.098;2023-04-25T11:21:11;96063.06;;;27.11;44.25
7614;BME280;3848;42.016;23.098;2023-04-25T11:23:38;96070.19;;;27.28;44.00
7614;BME280;3848;42.016;23.098;2023-04-25T11:26:07;96063.06;;;27.01;43.07
7614;BME280;3848;42.016;23.098;2023-04-25T11:28:33;96061.72;;;26.88;43.52
7614;BME280;3848;42.016;23.098;2023-04-25T11:31:02;96054.97;;;26.95;41.47
7614;BME280;3848;42.016;23.098;2023-04-25T11:33:30;96050.84;;;27.12;42.26
7614;BME280;3848;42.016;23.098;2023-04-25T11:35:57;96042.75;;;27.05;40.78
7614;BME280;3848;42.016;23.098;2023-04-25T11:38:24;96036.75;;;26.37;38.21
7614;BME280;3848;42.016;23.098;2023-04-25T11:40:52;96028.47;;;26.12;40.88
7614;BME280;3848;42.016;23.098;2023-04-25T11:43:21;96031.75;;;26.14;41.87
7614;BME280;3848;42.016;23.098;2023-04-25T11:45:48;96032.31;;;26.18;41.51
7614;BME280;3848;42.016;23.098;2023-04-25T11:48:16;96029.06;;;25.76;41.49
7614;BME280;3848;42.016;23.098;2023-04-25T11:50:43;96029.44;;;25.62;41.56
7614;BME280;3848;42.016;23.098;2023-04-25T11:53:10;96027.50;;;25.33;41.09
7614;BME280;3848;42.016;23.098;2023-04-25T11:55:37;96032.03;;;25.01;40.70
7614;BME280;3848;42.016;23.098;2023-04-25T11:58:04;96023.94;;;24.62;40.98
7614;BME280;3848;42.016;23.098;2023-04-25T12:00:32;96026.88;;;24.25;42.44
7614;BME280;3848;42.016;23.098;2023-04-25T12:02:59;96032.44;;;23.78;44.28
7614;BME280;3848;42.016;23.098;2023-04-25T12:05:30;96040.00;;;23.58;43.55
7614;BME280;3848;42.016;23.098;2023-04-25T12:08:08;95977.97;;;22.99;47.08
7614;BME280;3848;42.016;23.098;2023-04-25T12:10:37;96043.66;;;22.87;49.01
7614;BME280;3848;42.016;23.098;2023-04-25T12:13:19;95979.88;;;22.03;50.38
7614;BME280;3848;42.016;23.098;2023-04-25T12:15:47;96054.53;;;22.09;50.79
7614;BME280;3848;42.016;23.098;2023-04-25T12:18:14;96072.16;;;21.79;50.92
7614;BME280;3848;42.016;23.098;2023-04-25T12:20:41;96083.72;;;21.24;54.33
7614;BME280;3848;42.016;23.098;2023-04-25T12:23:09;96073.84;;;20.91;57.90
7614;BME280;3848;42.016;23.098;2023-04-25T12:25:37;96019.88;;;20.34;61.04
7614;BME280;3848;42.016;23.098;2023-04-25T12:28:16;96061.06;;;20.35;62.12
7614;BME280;3848;42.016;23.098;2023-04-25T12:30:57;96083.91;;;20.15;63.40
7614;BME280;3848;42.016;23.098;2023-04-25T12:33:24;96071.63;;;19.91;70.17
7614;BME280;3848;42.016;23.098;2023-04-25T12:35:52;96094.22;;;19.59;69.89
7614;BME280;3848;42.016;23.098;2023-04-25T12:38:23;96092.72;;;19.41;75.31
7614;BME280;3848;42.016;23.098;2023-04-25T12:40:50;96106.41;;;19.27;82.17
7614;BME280;3848;42.016;23.098;2023-04-25T12:43:17;96109.19;;;19.24;81.83
7614;BME280;3848;42.016;23.098;2023-04-25T12:45:44;96117.59;;;19.12;84.67
7614;BME280;3848;42.016;23.098;2023-04-25T12:48:12;96123.50;;;19.00;87.52
7614;BME280;3848;42.016;23.098;2023-04-25T12:50:39;96122.34;;;18.89;87.11
7614;BME280;3848;42.016;23.098;2023-04-25T12:53:06;96124.81;;;18.77;91.61
7614;BME280;3848;42.016;23.098;2023-04-25T13:08:52;96085.88;;;17.08;100.00
7614;BME280;3848;42.016;23.098;2023-04-25T13:11:20;96158.06;;;17.52;100.00
7614;BME280;3848;42.016;23.098;2023-04-25T13:13:47;96161.66;;;17.48;100.00
7614;BME280;3848;42.016;23.098;2023-04-25T13:16:14;96170.59;;;17.41;100.00
7614;BME280;3848;42.016;23.098;2023-04-25T13:18:41;96170.69;;;17.40;100.00
7614;BME280;3848;42.016;23.098;2023-04-25T13:21:09;96176.97;;;17.34;100.00
7614;BME280;3848;42.016;23.098;2023-04-25T13:23:36;96182.25;;;17.31;100.00
7614;BME280;3848;42.016;23.098;2023-04-25T13:26:05;96181.50;;;17.29;100.00
7614;BME280;3848;42.016;23.098;2023-04-25T13:28:32;96170.78;;;17.21;100.00
7614;BME280;3848;42.016;23.098;2023-04-25T13:30:58;96182.88;;;17.19;100.00
7614;BME280;3848;42.016;23.098;2023-04-25T13:33:25;96147.53;;;16.89;100.00
7614;BME280;3848;42.016;23.098;2023-04-25T13:35:52;96133.97;;;16.87;100.00
7614;BME280;3848;42.016;23.098;2023-04-25T13:38:22;96127.75;;;16.91;100.00
7614;BME280;3848;42.016;23.098;2023-04-25T13:40:49;96121.72;;;16.75;100.00
7614;BME280;3848;42.016;23.098;2023-04-25T13:43:19;96142.03;;;16.97;100.00
7614;BME280;3848;42.016;23.098;2023-04-25T13:45:47;96141.63;;;17.04;100.00
7614;BME280;3848;42.016;23.098;2023-04-25T13:48:13;96149.25;;;17.23;100.00